EYVI/VNO METAR and TAF weather

Enter ICAO airport designator
Station Type Date Time Source
EYVI METAR 2022/09/28 19:20 UTC NOAA

EYVI 281920Z 16003KT 120V220 9999 -RA OVC003 08/07 Q0999 TEMPO OVC002


Station Type Date Time Source
EYVI Decoded METAR 2022/09/28 19:20 UTC NOAA

Vilnius, Lithuania (EYVI) 54-38N 025-06E 156M
Sep 28, 2022 - 03:20 PM EDT / 2022.09.28 1920 UTC
Wind: from the SSE (160 degrees) at 3 MPH (3 KT) (direction variable):0
Visibility: greater than 7 mile(s):0
Sky conditions: overcast
Weather: light rain
Temperature: 46 F (8 C)
Dew Point: 44 F (7 C)
Relative Humidity: 93%
Pressure (altimeter): 29.50 in. Hg (0999 hPa)
ob: EYVI 281920Z 16003KT 120V220 9999 -RA OVC003 08/07 Q0999 TEMPO OVC002
cycle: 19

Station Type Date Time Source
EYVI TAF 2022/09/28 18:06 UTC NOAA

TAF TAF EYVI 281700Z 2818/2918 VRB05KT 5000 BR BKN005 OVC015
TEMPO 2818/2821 3000 RA SCT002 OVC005
BECMG 2821/2822 3000 BKN005
TEMPO 2822/2902 0600 FG VV002
TEMPO 2902/2906 SHRA BKN015CB
BECMG 2906/2907 8000 NSW BKN015
TEMPO 2910/2916 22015KT

Example: see airport list